KJAC

Jackson Hole Airport

Jackson, Wyoming, USA
METAR KJAC 172056Z 20022G29KT 10SM SCT075 BKN090 01/M08 A2987 RMK AO2 PK WND 20031/2035 SLP155 P0001 60002 T00061083 58035
Observed Flight Rules
Feb-17 @ 20:56 UTC (37 minutes ago) Visual Flight Rules
Wind Visibility Clouds
200° at 22 knots
 Gusting to 29 knots
10 miles
  • Scattered at 7,500' AGL
  • Broken at 9,000' AGL
Temperatures Readings Precipitation
Current 1°C / 34°F
Dewpoint -8°C / 18°F
Humidity 51%
Altimeter 29.87" Hg
Pressure 1015.5 hPa
Elevation 1961
Current Rain 0.01
METAR KJAC 172056Z 20022G29KT 10SM SCT075 BKN090 01/M08 A2987 RMK AO2 PK WND 20031/2035 SLP155 P0001 60002 T00061083 58035
Observed Flight Rules
Feb-17 @ 20:56 UTC
(37 minutes ago)
VFR
Wind Visibility
200° at 22 knots
 Gusting to 29 knots
10 miles
Clouds
  • Scattered at 7,500' AGL
  • Broken at 9,000' AGL
Temperature Dewpoint
1°C / 34°F -8°C / 18°F
Humidity Altimeter Pressure
51% 29.87" Hg 1015.5 hPa
Current Rain
0.01